sensor_id;sensor_type;location;lat;lon;timestamp;P1;durP1;ratioP1;P2;durP2;ratioP2
74660;SDS011;63191;39.566;2.654;2022-11-27T00:01:27;9.50;;;3.00;;
74660;SDS011;63191;39.566;2.654;2022-11-27T00:03:55;10.00;;;3.40;;
74660;SDS011;63191;39.566;2.654;2022-11-27T00:06:26;8.70;;;2.60;;
74660;SDS011;63191;39.566;2.654;2022-11-27T00:08:58;11.30;;;3.50;;
74660;SDS011;63191;39.566;2.654;2022-11-27T00:11:26;13.30;;;4.80;;
74660;SDS011;63191;39.566;2.654;2022-11-27T00:13:53;9.10;;;2.60;;
74660;SDS011;63191;39.566;2.654;2022-11-27T00:16:21;8.80;;;2.00;;
74660;SDS011;63191;39.566;2.654;2022-11-27T00:18:48;9.40;;;2.80;;
74660;SDS011;63191;39.566;2.654;2022-11-27T00:21:22;9.00;;;2.40;;
74660;SDS011;63191;39.566;2.654;2022-11-27T00:23:53;8.50;;;2.30;;
74660;SDS011;63191;39.566;2.654;2022-11-27T00:26:20;9.40;;;3.10;;
74660;SDS011;63191;39.566;2.654;2022-11-27T00:28:46;10.10;;;3.30;;
74660;SDS011;63191;39.566;2.654;2022-11-27T00:31:16;8.20;;;2.70;;
74660;SDS011;63191;39.566;2.654;2022-11-27T00:33:43;7.90;;;2.20;;
74660;SDS011;63191;39.566;2.654;2022-11-27T00:36:09;7.30;;;2.30;;
74660;SDS011;63191;39.566;2.654;2022-11-27T00:38:36;11.70;;;4.00;;
74660;SDS011;63191;39.566;2.654;2022-11-27T00:43:33;7.40;;;2.00;;
74660;SDS011;63191;39.566;2.654;2022-11-27T00:45:59;8.20;;;2.40;;
74660;SDS011;63191;39.566;2.654;2022-11-27T00:48:26;7.10;;;2.00;;
74660;SDS011;63191;39.566;2.654;2022-11-27T00:50:51;6.50;;;1.70;;
74660;SDS011;63191;39.566;2.654;2022-11-27T00:53:17;7.10;;;1.40;;
74660;SDS011;63191;39.566;2.654;2022-11-27T00:55:45;6.40;;;1.40;;
74660;SDS011;63191;39.566;2.654;2022-11-27T00:58:11;9.00;;;2.10;;
74660;SDS011;63191;39.566;2.654;2022-11-27T01:00:36;13.00;;;4.80;;
74660;SDS011;63191;39.566;2.654;2022-11-27T01:03:02;8.70;;;2.90;;
74660;SDS011;63191;39.566;2.654;2022-11-27T01:05:27;6.00;;;1.60;;
74660;SDS011;63191;39.566;2.654;2022-11-27T01:07:53;6.80;;;1.30;;
74660;SDS011;63191;39.566;2.654;2022-11-27T01:10:19;5.70;;;1.10;;
74660;SDS011;63191;39.566;2.654;2022-11-27T01:12:47;7.00;;;1.40;;
74660;SDS011;63191;39.566;2.654;2022-11-27T01:15:14;5.00;;;1.00;;
74660;SDS011;63191;39.566;2.654;2022-11-27T01:17:40;7.10;;;1.40;;
74660;SDS011;63191;39.566;2.654;2022-11-27T01:20:06;8.20;;;1.40;;
74660;SDS011;63191;39.566;2.654;2022-11-27T01:22:32;5.00;;;1.20;;
74660;SDS011;63191;39.566;2.654;2022-11-27T01:24:58;6.30;;;1.20;;
74660;SDS011;63191;39.566;2.654;2022-11-27T01:27:23;6.80;;;1.30;;
74660;SDS011;63191;39.566;2.654;2022-11-27T01:29:49;5.10;;;0.90;;
74660;SDS011;63191;39.566;2.654;2022-11-27T01:32:15;4.10;;;0.80;;
74660;SDS011;63191;39.566;2.654;2022-11-27T01:34:40;5.50;;;1.00;;
74660;SDS011;63191;39.566;2.654;2022-11-27T01:37:06;6.70;;;1.30;;
74660;SDS011;63191;39.566;2.654;2022-11-27T01:39:31;6.70;;;1.80;;
74660;SDS011;63191;39.566;2.654;2022-11-27T01:41:57;13.60;;;3.90;;
74660;SDS011;63191;39.566;2.654;2022-11-27T01:49:37;8.50;;;1.90;;
74660;SDS011;63191;39.566;2.654;2022-11-27T01:52:19;7.00;;;1.50;;
74660;SDS011;63191;39.566;2.654;2022-11-27T01:57:23;6.80;;;1.70;;
74660;SDS011;63191;39.566;2.654;2022-11-27T01:59:52;6.20;;;1.30;;
74660;SDS011;63191;39.566;2.654;2022-11-27T02:02:19;5.60;;;1.50;;
74660;SDS011;63191;39.566;2.654;2022-11-27T02:04:44;5.40;;;1.20;;
74660;SDS011;63191;39.566;2.654;2022-11-27T02:07:10;5.90;;;1.10;;
74660;SDS011;63191;39.566;2.654;2022-11-27T02:09:36;5.20;;;1.40;;
74660;SDS011;63191;39.566;2.654;2022-11-27T02:12:24;5.60;;;1.00;;
74660;SDS011;63191;39.566;2.654;2022-11-27T02:17:32;7.40;;;1.40;;
74660;SDS011;63191;39.566;2.654;2022-11-27T02:20:12;6.30;;;1.10;;
74660;SDS011;63191;39.566;2.654;2022-11-27T02:29:13;4.00;;;0.90;;
74660;SDS011;63191;39.566;2.654;2022-11-27T02:31:50;4.80;;;1.00;;
74660;SDS011;63191;39.566;2.654;2022-11-27T02:42:58;5.90;;;1.10;;
74660;SDS011;63191;39.566;2.654;2022-11-27T02:45:40;5.60;;;1.10;;
74660;SDS011;63191;39.566;2.654;2022-11-27T02:48:09;5.10;;;1.00;;
74660;SDS011;63191;39.566;2.654;2022-11-27T02:50:39;5.10;;;1.10;;
74660;SDS011;63191;39.566;2.654;2022-11-27T02:53:12;5.50;;;0.80;;
74660;SDS011;63191;39.566;2.654;2022-11-27T02:55:42;6.10;;;1.00;;
74660;SDS011;63191;39.566;2.654;2022-11-27T02:58:12;2.80;;;0.60;;
74660;SDS011;63191;39.566;2.654;2022-11-27T03:00:42;3.60;;;0.70;;
74660;SDS011;63191;39.566;2.654;2022-11-27T03:03:10;3.80;;;0.70;;
74660;SDS011;63191;39.566;2.654;2022-11-27T03:05:41;2.90;;;0.40;;
74660;SDS011;63191;39.566;2.654;2022-11-27T03:08:21;3.80;;;0.80;;
74660;SDS011;63191;39.566;2.654;2022-11-27T03:11:06;4.60;;;0.50;;
74660;SDS011;63191;39.566;2.654;2022-11-27T03:13:40;6.30;;;1.20;;
74660;SDS011;63191;39.566;2.654;2022-11-27T03:19:18;5.40;;;1.20;;
74660;SDS011;63191;39.566;2.654;2022-11-27T03:21:50;2.80;;;0.40;;
74660;SDS011;63191;39.566;2.654;2022-11-27T03:24:18;4.50;;;0.70;;
74660;SDS011;63191;39.566;2.654;2022-11-27T03:26:44;4.40;;;0.50;;
74660;SDS011;63191;39.566;2.654;2022-11-27T03:29:14;2.90;;;0.60;;
74660;SDS011;63191;39.566;2.654;2022-11-27T03:31:43;3.60;;;0.60;;
74660;SDS011;63191;39.566;2.654;2022-11-27T03:34:09;2.60;;;0.70;;
74660;SDS011;63191;39.566;2.654;2022-11-27T03:36:35;4.60;;;0.80;;
74660;SDS011;63191;39.566;2.654;2022-11-27T03:39:02;5.50;;;0.80;;
74660;SDS011;63191;39.566;2.654;2022-11-27T03:59:18;3.70;;;0.40;;
74660;SDS011;63191;39.566;2.654;2022-11-27T04:01:47;2.80;;;0.40;;
74660;SDS011;63191;39.566;2.654;2022-11-27T04:04:13;3.80;;;0.60;;
74660;SDS011;63191;39.566;2.654;2022-11-27T04:06:39;3.10;;;0.50;;
74660;SDS011;63191;39.566;2.654;2022-11-27T04:09:05;2.90;;;0.40;;
74660;SDS011;63191;39.566;2.654;2022-11-27T04:11:31;2.20;;;0.30;;
74660;SDS011;63191;39.566;2.654;2022-11-27T04:13:57;4.10;;;0.50;;
74660;SDS011;63191;39.566;2.654;2022-11-27T04:16:22;3.20;;;0.40;;
74660;SDS011;63191;39.566;2.654;2022-11-27T04:18:48;4.90;;;0.50;;
74660;SDS011;63191;39.566;2.654;2022-11-27T04:21:14;5.90;;;0.60;;
74660;SDS011;63191;39.566;2.654;2022-11-27T04:23:41;3.20;;;0.50;;
74660;SDS011;63191;39.566;2.654;2022-11-27T04:26:08;2.70;;;0.40;;
74660;SDS011;63191;39.566;2.654;2022-11-27T04:28:33;4.80;;;0.60;;
74660;SDS011;63191;39.566;2.654;2022-11-27T04:31:00;5.10;;;0.60;;
74660;SDS011;63191;39.566;2.654;2022-11-27T04:33:26;5.90;;;0.80;;
74660;SDS011;63191;39.566;2.654;2022-11-27T04:35:51;3.70;;;0.50;;
74660;SDS011;63191;39.566;2.654;2022-11-27T04:38:19;5.60;;;0.50;;
74660;SDS011;63191;39.566;2.654;2022-11-27T04:40:45;2.90;;;0.30;;
74660;SDS011;63191;39.566;2.654;2022-11-27T04:43:11;5.00;;;0.60;;
74660;SDS011;63191;39.566;2.654;2022-11-27T04:45:37;4.80;;;0.60;;
74660;SDS011;63191;39.566;2.654;2022-11-27T04:48:03;6.30;;;0.80;;
74660;SDS011;63191;39.566;2.654;2022-11-27T04:50:30;5.90;;;0.60;;
74660;SDS011;63191;39.566;2.654;2022-11-27T04:52:55;3.90;;;0.50;;
74660;SDS011;63191;39.566;2.654;2022-11-27T04:55:22;6.40;;;0.70;;
74660;SDS011;63191;39.566;2.654;2022-11-27T04:57:47;3.40;;;0.60;;
74660;SDS011;63191;39.566;2.654;2022-11-27T05:00:14;3.60;;;0.50;;
74660;SDS011;63191;39.566;2.654;2022-11-27T05:02:40;4.00;;;0.70;;
74660;SDS011;63191;39.566;2.654;2022-11-27T05:05:06;4.00;;;0.50;;
74660;SDS011;63191;39.566;2.654;2022-11-27T05:07:32;4.00;;;0.70;;
74660;SDS011;63191;39.566;2.654;2022-11-27T05:09:57;4.90;;;0.80;;
74660;SDS011;63191;39.566;2.654;2022-11-27T05:12:23;3.70;;;0.70;;
74660;SDS011;63191;39.566;2.654;2022-11-27T05:14:48;3.70;;;0.60;;
74660;SDS011;63191;39.566;2.654;2022-11-27T05:17:14;3.70;;;0.40;;
74660;SDS011;63191;39.566;2.654;2022-11-27T05:19:40;2.90;;;0.50;;
74660;SDS011;63191;39.566;2.654;2022-11-27T05:22:05;3.00;;;0.50;;
74660;SDS011;63191;39.566;2.654;2022-11-27T05:24:32;2.00;;;0.30;;
74660;SDS011;63191;39.566;2.654;2022-11-27T05:26:57;2.90;;;0.30;;
74660;SDS011;63191;39.566;2.654;2022-11-27T05:29:24;3.00;;;0.40;;
74660;SDS011;63191;39.566;2.654;2022-11-27T05:31:50;1.60;;;0.20;;
74660;SDS011;63191;39.566;2.654;2022-11-27T05:34:15;1.70;;;0.20;;
74660;SDS011;63191;39.566;2.654;2022-11-27T05:36:41;2.10;;;0.30;;
74660;SDS011;63191;39.566;2.654;2022-11-27T05:39:08;3.90;;;0.30;;
74660;SDS011;63191;39.566;2.654;2022-11-27T05:41:36;5.60;;;0.70;;
74660;SDS011;63191;39.566;2.654;2022-11-27T05:44:03;4.40;;;0.40;;
74660;SDS011;63191;39.566;2.654;2022-11-27T05:46:29;3.00;;;0.50;;
74660;SDS011;63191;39.566;2.654;2022-11-27T05:48:54;3.10;;;0.40;;
74660;SDS011;63191;39.566;2.654;2022-11-27T05:51:20;3.50;;;0.40;;
74660;SDS011;63191;39.566;2.654;2022-11-27T05:53:46;3.00;;;0.30;;
74660;SDS011;63191;39.566;2.654;2022-11-27T05:56:14;1.80;;;0.30;;
74660;SDS011;63191;39.566;2.654;2022-11-27T05:58:43;3.90;;;0.40;;
74660;SDS011;63191;39.566;2.654;2022-11-27T06:01:11;3.40;;;0.30;;
74660;SDS011;63191;39.566;2.654;2022-11-27T06:03:38;3.70;;;0.40;;
74660;SDS011;63191;39.566;2.654;2022-11-27T06:06:05;3.70;;;0.60;;
74660;SDS011;63191;39.566;2.654;2022-11-27T06:08:49;4.30;;;0.50;;
74660;SDS011;63191;39.566;2.654;2022-11-27T06:11:20;2.40;;;0.30;;
74660;SDS011;63191;39.566;2.654;2022-11-27T06:13:48;3.90;;;0.60;;
74660;SDS011;63191;39.566;2.654;2022-11-27T06:16:16;5.10;;;0.50;;
74660;SDS011;63191;39.566;2.654;2022-11-27T06:18:51;4.10;;;0.40;;
74660;SDS011;63191;39.566;2.654;2022-11-27T06:21:18;2.80;;;0.50;;
74660;SDS011;63191;39.566;2.654;2022-11-27T06:23:45;4.20;;;0.50;;
74660;SDS011;63191;39.566;2.654;2022-11-27T06:26:26;3.80;;;0.40;;
74660;SDS011;63191;39.566;2.654;2022-11-27T06:28:53;2.90;;;0.40;;
74660;SDS011;63191;39.566;2.654;2022-11-27T06:31:22;4.30;;;0.50;;
74660;SDS011;63191;39.566;2.654;2022-11-27T06:33:50;5.50;;;0.60;;
74660;SDS011;63191;39.566;2.654;2022-11-27T06:36:19;2.40;;;0.30;;
74660;SDS011;63191;39.566;2.654;2022-11-27T06:38:49;5.10;;;0.70;;
74660;SDS011;63191;39.566;2.654;2022-11-27T06:41:17;3.80;;;0.40;;
74660;SDS011;63191;39.566;2.654;2022-11-27T06:43:44;2.40;;;0.50;;
74660;SDS011;63191;39.566;2.654;2022-11-27T06:46:12;2.70;;;0.40;;
74660;SDS011;63191;39.566;2.654;2022-11-27T06:48:41;4.20;;;0.60;;
74660;SDS011;63191;39.566;2.654;2022-11-27T06:51:11;5.10;;;0.90;;
74660;SDS011;63191;39.566;2.654;2022-11-27T06:53:39;4.70;;;0.50;;
74660;SDS011;63191;39.566;2.654;2022-11-27T06:56:07;5.20;;;0.60;;
74660;SDS011;63191;39.566;2.654;2022-11-27T06:58:35;2.60;;;0.40;;
74660;SDS011;63191;39.566;2.654;2022-11-27T07:01:05;4.10;;;0.50;;
74660;SDS011;63191;39.566;2.654;2022-11-27T07:03:32;3.40;;;0.50;;
74660;SDS011;63191;39.566;2.654;2022-11-27T07:05:59;3.40;;;0.50;;
74660;SDS011;63191;39.566;2.654;2022-11-27T07:08:26;3.60;;;0.60;;
74660;SDS011;63191;39.566;2.654;2022-11-27T07:10:52;2.90;;;0.40;;
74660;SDS011;63191;39.566;2.654;2022-11-27T07:13:17;3.50;;;0.50;;
74660;SDS011;63191;39.566;2.654;2022-11-27T07:15:43;3.50;;;0.40;;
74660;SDS011;63191;39.566;2.654;2022-11-27T07:18:10;5.10;;;0.80;;
74660;SDS011;63191;39.566;2.654;2022-11-27T07:20:35;5.20;;;0.90;;
74660;SDS011;63191;39.566;2.654;2022-11-27T07:23:01;5.00;;;0.80;;
74660;SDS011;63191;39.566;2.654;2022-11-27T07:25:27;4.00;;;0.70;;
74660;SDS011;63191;39.566;2.654;2022-11-27T07:27:54;3.20;;;0.70;;
74660;SDS011;63191;39.566;2.654;2022-11-27T07:30:20;5.20;;;0.80;;
74660;SDS011;63191;39.566;2.654;2022-11-27T07:32:46;3.40;;;0.60;;
74660;SDS011;63191;39.566;2.654;2022-11-27T07:35:11;3.70;;;0.70;;
74660;SDS011;63191;39.566;2.654;2022-11-27T07:37:37;5.20;;;1.20;;
74660;SDS011;63191;39.566;2.654;2022-11-27T07:40:04;5.30;;;1.20;;
74660;SDS011;63191;39.566;2.654;2022-11-27T07:42:33;8.40;;;3.10;;
74660;SDS011;63191;39.566;2.654;2022-11-27T07:44:59;9.40;;;3.80;;
74660;SDS011;63191;39.566;2.654;2022-11-27T07:47:24;10.70;;;4.10;;
74660;SDS011;63191;39.566;2.654;2022-11-27T07:49:50;13.00;;;4.50;;
74660;SDS011;63191;39.566;2.654;2022-11-27T07:52:16;11.10;;;4.90;;
74660;SDS011;63191;39.566;2.654;2022-11-27T07:54:41;11.60;;;6.40;;
74660;SDS011;63191;39.566;2.654;2022-11-27T07:57:07;13.30;;;5.50;;
74660;SDS011;63191;39.566;2.654;2022-11-27T07:59:33;11.20;;;4.90;;
74660;SDS011;63191;39.566;2.654;2022-11-27T08:01:59;9.90;;;3.90;;
74660;SDS011;63191;39.566;2.654;2022-11-27T08:04:26;8.50;;;2.80;;
74660;SDS011;63191;39.566;2.654;2022-11-27T08:06:51;8.70;;;2.50;;
74660;SDS011;63191;39.566;2.654;2022-11-27T08:09:17;7.60;;;1.80;;
74660;SDS011;63191;39.566;2.654;2022-11-27T08:11:42;7.30;;;1.80;;
74660;SDS011;63191;39.566;2.654;2022-11-27T08:14:08;5.40;;;1.20;;
74660;SDS011;63191;39.566;2.654;2022-11-27T08:16:34;4.60;;;1.10;;
74660;SDS011;63191;39.566;2.654;2022-11-27T08:19:00;4.90;;;1.00;;
74660;SDS011;63191;39.566;2.654;2022-11-27T08:21:27;5.40;;;1.20;;
74660;SDS011;63191;39.566;2.654;2022-11-27T08:23:53;4.20;;;1.20;;
74660;SDS011;63191;39.566;2.654;2022-11-27T08:26:21;5.60;;;1.40;;
74660;SDS011;63191;39.566;2.654;2022-11-27T08:28:46;5.30;;;1.60;;
74660;SDS011;63191;39.566;2.654;2022-11-27T08:31:14;6.90;;;1.80;;
74660;SDS011;63191;39.566;2.654;2022-11-27T08:33:40;5.80;;;2.30;;
74660;SDS011;63191;39.566;2.654;2022-11-27T08:36:06;6.00;;;2.20;;
74660;SDS011;63191;39.566;2.654;2022-11-27T08:38:32;5.60;;;2.10;;
74660;SDS011;63191;39.566;2.654;2022-11-27T08:41:00;7.60;;;2.10;;
74660;SDS011;63191;39.566;2.654;2022-11-27T08:43:28;5.40;;;1.50;;
74660;SDS011;63191;39.566;2.654;2022-11-27T08:45:54;6.00;;;1.90;;
74660;SDS011;63191;39.566;2.654;2022-11-27T08:48:20;5.00;;;1.70;;
74660;SDS011;63191;39.566;2.654;2022-11-27T08:50:48;5.80;;;1.70;;
74660;SDS011;63191;39.566;2.654;2022-11-27T08:53:14;5.00;;;1.30;;
74660;SDS011;63191;39.566;2.654;2022-11-27T08:55:41;3.90;;;1.40;;
74660;SDS011;63191;39.566;2.654;2022-11-27T08:58:07;3.90;;;1.20;;
74660;SDS011;63191;39.566;2.654;2022-11-27T09:00:34;4.30;;;1.40;;
74660;SDS011;63191;39.566;2.654;2022-11-27T09:03:00;4.70;;;1.50;;
74660;SDS011;63191;39.566;2.654;2022-11-27T09:05:27;4.50;;;1.70;;
74660;SDS011;63191;39.566;2.654;2022-11-27T09:07:54;5.90;;;1.60;;
74660;SDS011;63191;39.566;2.654;2022-11-27T09:10:20;4.60;;;1.70;;
74660;SDS011;63191;39.566;2.654;2022-11-27T09:12:48;5.00;;;1.70;;
74660;SDS011;63191;39.566;2.654;2022-11-27T09:15:14;4.70;;;1.90;;
74660;SDS011;63191;39.566;2.654;2022-11-27T09:17:40;4.80;;;1.90;;
74660;SDS011;63191;39.566;2.654;2022-11-27T09:20:06;4.50;;;2.30;;
74660;SDS011;63191;39.566;2.654;2022-11-27T09:22:33;5.20;;;2.40;;
74660;SDS011;63191;39.566;2.654;2022-11-27T09:24:59;5.60;;;3.00;;
74660;SDS011;63191;39.566;2.654;2022-11-27T09:27:25;6.20;;;3.30;;
74660;SDS011;63191;39.566;2.654;2022-11-27T09:29:51;5.70;;;2.80;;
74660;SDS011;63191;39.566;2.654;2022-11-27T09:32:17;5.20;;;2.80;;
74660;SDS011;63191;39.566;2.654;2022-11-27T09:34:43;6.00;;;3.20;;
74660;SDS011;63191;39.566;2.654;2022-11-27T09:37:09;5.60;;;2.80;;
74660;SDS011;63191;39.566;2.654;2022-11-27T09:39:35;5.50;;;2.60;;
74660;SDS011;63191;39.566;2.654;2022-11-27T09:42:03;5.20;;;2.80;;
74660;SDS011;63191;39.566;2.654;2022-11-27T09:44:38;6.20;;;2.90;;
74660;SDS011;63191;39.566;2.654;2022-11-27T09:49:49;6.20;;;3.30;;
74660;SDS011;63191;39.566;2.654;2022-11-27T09:52:21;7.00;;;4.00;;
74660;SDS011;63191;39.566;2.654;2022-11-27T09:55:01;6.50;;;3.70;;
74660;SDS011;63191;39.566;2.654;2022-11-27T09:58:01;7.70;;;4.00;;
74660;SDS011;63191;39.566;2.654;2022-11-27T10:00:30;7.30;;;4.40;;
74660;SDS011;63191;39.566;2.654;2022-11-27T10:02:56;6.70;;;4.70;;
74660;SDS011;63191;39.566;2.654;2022-11-27T10:05:32;6.60;;;4.30;;
74660;SDS011;63191;39.566;2.654;2022-11-27T10:08:31;5.90;;;4.00;;
74660;SDS011;63191;39.566;2.654;2022-11-27T10:11:16;6.40;;;4.50;;
74660;SDS011;63191;39.566;2.654;2022-11-27T10:17:01;6.60;;;5.50;;
74660;SDS011;63191;39.566;2.654;2022-11-27T10:20:01;6.40;;;5.10;;
74660;SDS011;63191;39.566;2.654;2022-11-27T10:25:42;6.00;;;5.20;;
74660;SDS011;63191;39.566;2.654;2022-11-27T10:31:26;6.30;;;5.60;;
74660;SDS011;63191;39.566;2.654;2022-11-27T10:34:03;6.50;;;5.90;;
74660;SDS011;63191;39.566;2.654;2022-11-27T10:36:42;7.00;;;6.00;;
74660;SDS011;63191;39.566;2.654;2022-11-27T10:39:37;7.40;;;6.10;;
74660;SDS011;63191;39.566;2.654;2022-11-27T10:42:18;7.00;;;6.20;;
74660;SDS011;63191;39.566;2.654;2022-11-27T10:44:59;7.20;;;6.50;;
74660;SDS011;63191;39.566;2.654;2022-11-27T10:47:30;7.00;;;5.60;;
74660;SDS011;63191;39.566;2.654;2022-11-27T10:49:56;6.10;;;5.30;;
74660;SDS011;63191;39.566;2.654;2022-11-27T10:52:22;6.10;;;4.00;;
74660;SDS011;63191;39.566;2.654;2022-11-27T10:55:02;5.80;;;4.80;;
74660;SDS011;63191;39.566;2.654;2022-11-27T11:00:38;5.20;;;3.50;;
74660;SDS011;63191;39.566;2.654;2022-11-27T11:03:05;6.20;;;4.30;;
74660;SDS011;63191;39.566;2.654;2022-11-27T11:05:33;5.50;;;4.00;;
74660;SDS011;63191;39.566;2.654;2022-11-27T11:08:02;5.50;;;3.80;;
74660;SDS011;63191;39.566;2.654;2022-11-27T11:10:36;5.70;;;3.20;;
74660;SDS011;63191;39.566;2.654;2022-11-27T11:18:33;5.50;;;3.30;;
74660;SDS011;63191;39.566;2.654;2022-11-27T11:21:25;5.70;;;3.70;;
74660;SDS011;63191;39.566;2.654;2022-11-27T11:23:59;5.50;;;3.30;;
74660;SDS011;63191;39.566;2.654;2022-11-27T11:26:33;5.00;;;3.50;;
74660;SDS011;63191;39.566;2.654;2022-11-27T11:29:05;6.50;;;4.10;;
74660;SDS011;63191;39.566;2.654;2022-11-27T11:31:38;5.30;;;3.90;;
74660;SDS011;63191;39.566;2.654;2022-11-27T11:34:33;5.40;;;3.60;;
74660;SDS011;63191;39.566;2.654;2022-11-27T11:37:03;6.80;;;4.00;;
74660;SDS011;63191;39.566;2.654;2022-11-27T11:39:43;5.80;;;3.70;;
74660;SDS011;63191;39.566;2.654;2022-11-27T11:42:18;6.00;;;3.90;;
74660;SDS011;63191;39.566;2.654;2022-11-27T11:44:55;6.70;;;4.20;;
74660;SDS011;63191;39.566;2.654;2022-11-27T11:47:28;5.50;;;3.90;;
74660;SDS011;63191;39.566;2.654;2022-11-27T11:49:54;5.60;;;4.10;;
74660;SDS011;63191;39.566;2.654;2022-11-27T11:55:25;4.90;;;3.60;;
74660;SDS011;63191;39.566;2.654;2022-11-27T12:00:55;5.20;;;3.50;;
74660;SDS011;63191;39.566;2.654;2022-11-27T12:03:57;5.70;;;3.10;;
74660;SDS011;63191;39.566;2.654;2022-11-27T12:12:12;4.40;;;2.60;;
74660;SDS011;63191;39.566;2.654;2022-11-27T12:14:46;15.90;;;3.00;;
74660;SDS011;63191;39.566;2.654;2022-11-27T12:20:23;6.80;;;2.10;;
74660;SDS011;63191;39.566;2.654;2022-11-27T12:35:14;6.00;;;2.00;;
74660;SDS011;63191;39.566;2.654;2022-11-27T12:43:53;4.70;;;1.90;;
74660;SDS011;63191;39.566;2.654;2022-11-27T12:49:20;3.80;;;1.70;;
74660;SDS011;63191;39.566;2.654;2022-11-27T12:55:04;4.00;;;1.90;;
74660;SDS011;63191;39.566;2.654;2022-11-27T12:57:45;3.50;;;1.50;;
74660;SDS011;63191;39.566;2.654;2022-11-27T13:00:16;4.10;;;1.30;;
74660;SDS011;63191;39.566;2.654;2022-11-27T13:09:06;3.20;;;1.20;;
74660;SDS011;63191;39.566;2.654;2022-11-27T13:11:39;3.20;;;1.20;;
74660;SDS011;63191;39.566;2.654;2022-11-27T13:14:09;2.80;;;1.10;;
74660;SDS011;63191;39.566;2.654;2022-11-27T13:16:39;3.40;;;1.30;;
74660;SDS011;63191;39.566;2.654;2022-11-27T13:19:22;2.80;;;1.00;;
74660;SDS011;63191;39.566;2.654;2022-11-27T13:21:53;3.20;;;1.30;;
74660;SDS011;63191;39.566;2.654;2022-11-27T13:24:21;3.80;;;1.20;;
74660;SDS011;63191;39.566;2.654;2022-11-27T13:27:07;2.10;;;0.70;;
74660;SDS011;63191;39.566;2.654;2022-11-27T13:32:29;2.50;;;0.50;;
74660;SDS011;63191;39.566;2.654;2022-11-27T13:35:00;1.70;;;0.50;;
74660;SDS011;63191;39.566;2.654;2022-11-27T13:37:37;3.50;;;0.80;;
74660;SDS011;63191;39.566;2.654;2022-11-27T13:40:21;3.20;;;0.90;;
74660;SDS011;63191;39.566;2.654;2022-11-27T13:42:54;1.70;;;0.60;;
74660;SDS011;63191;39.566;2.654;2022-11-27T13:45:33;2.20;;;0.50;;
74660;SDS011;63191;39.566;2.654;2022-11-27T13:48:14;4.30;;;1.40;;
74660;SDS011;63191;39.566;2.654;2022-11-27T13:50:47;2.90;;;0.80;;
74660;SDS011;63191;39.566;2.654;2022-11-27T13:53:13;1.50;;;0.70;;
74660;SDS011;63191;39.566;2.654;2022-11-27T13:55:51;2.10;;;0.50;;
74660;SDS011;63191;39.566;2.654;2022-11-27T13:58:47;3.30;;;0.80;;
74660;SDS011;63191;39.566;2.654;2022-11-27T14:01:18;1.90;;;0.60;;
74660;SDS011;63191;39.566;2.654;2022-11-27T14:03:46;1.30;;;0.50;;
74660;SDS011;63191;39.566;2.654;2022-11-27T14:06:30;1.00;;;0.50;;
74660;SDS011;63191;39.566;2.654;2022-11-27T14:09:06;1.00;;;0.50;;
74660;SDS011;63191;39.566;2.654;2022-11-27T14:11:42;3.50;;;0.80;;
74660;SDS011;63191;39.566;2.654;2022-11-27T14:16:59;4.00;;;0.60;;
74660;SDS011;63191;39.566;2.654;2022-11-27T14:19:43;2.00;;;0.50;;
74660;SDS011;63191;39.566;2.654;2022-11-27T14:22:40;1.90;;;0.50;;
74660;SDS011;63191;39.566;2.654;2022-11-27T14:27:56;1.80;;;0.40;;
74660;SDS011;63191;39.566;2.654;2022-11-27T14:30:39;2.20;;;0.50;;
74660;SDS011;63191;39.566;2.654;2022-11-27T14:33:17;1.20;;;0.50;;
74660;SDS011;63191;39.566;2.654;2022-11-27T14:35:47;2.00;;;0.40;;
74660;SDS011;63191;39.566;2.654;2022-11-27T14:38:15;1.80;;;0.30;;
74660;SDS011;63191;39.566;2.654;2022-11-27T14:40:41;2.30;;;0.30;;
74660;SDS011;63191;39.566;2.654;2022-11-27T14:45:51;0.70;;;0.20;;
74660;SDS011;63191;39.566;2.654;2022-11-27T14:48:20;0.60;;;0.20;;
74660;SDS011;63191;39.566;2.654;2022-11-27T14:50:49;2.90;;;0.50;;
74660;SDS011;63191;39.566;2.654;2022-11-27T14:53:18;2.00;;;0.20;;
74660;SDS011;63191;39.566;2.654;2022-11-27T14:55:47;1.30;;;0.30;;
74660;SDS011;63191;39.566;2.654;2022-11-27T14:58:18;2.20;;;0.30;;
74660;SDS011;63191;39.566;2.654;2022-11-27T15:00:59;1.10;;;0.20;;
74660;SDS011;63191;39.566;2.654;2022-11-27T15:03:27;1.10;;;0.10;;
74660;SDS011;63191;39.566;2.654;2022-11-27T15:06:04;1.90;;;0.30;;
74660;SDS011;63191;39.566;2.654;2022-11-27T15:08:34;1.30;;;0.20;;
74660;SDS011;63191;39.566;2.654;2022-11-27T15:11:02;3.00;;;0.20;;
74660;SDS011;63191;39.566;2.654;2022-11-27T15:13:31;1.50;;;0.20;;
74660;SDS011;63191;39.566;2.654;2022-11-27T15:16:27;2.20;;;0.20;;
74660;SDS011;63191;39.566;2.654;2022-11-27T15:19:03;1.00;;;0.20;;
74660;SDS011;63191;39.566;2.654;2022-11-27T15:21:33;1.70;;;0.20;;
74660;SDS011;63191;39.566;2.654;2022-11-27T15:24:01;1.40;;;0.10;;
74660;SDS011;63191;39.566;2.654;2022-11-27T15:26:35;1.80;;;0.20;;
74660;SDS011;63191;39.566;2.654;2022-11-27T15:29:29;1.20;;;0.20;;
74660;SDS011;63191;39.566;2.654;2022-11-27T15:32:01;2.00;;;0.20;;
74660;SDS011;63191;39.566;2.654;2022-11-27T15:34:29;1.30;;;0.20;;
74660;SDS011;63191;39.566;2.654;2022-11-27T15:37:02;0.40;;;0.10;;
74660;SDS011;63191;39.566;2.654;2022-11-27T15:42:16;1.10;;;0.10;;
74660;SDS011;63191;39.566;2.654;2022-11-27T15:44:46;1.60;;;0.10;;
74660;SDS011;63191;39.566;2.654;2022-11-27T15:47:22;1.50;;;0.20;;
74660;SDS011;63191;39.566;2.654;2022-11-27T15:49:50;2.60;;;0.10;;
74660;SDS011;63191;39.566;2.654;2022-11-27T15:52:15;2.10;;;0.20;;
74660;SDS011;63191;39.566;2.654;2022-11-27T15:54:41;2.80;;;0.20;;
74660;SDS011;63191;39.566;2.654;2022-11-27T15:57:07;1.10;;;0.10;;
74660;SDS011;63191;39.566;2.654;2022-11-27T15:59:32;1.60;;;0.10;;
74660;SDS011;63191;39.566;2.654;2022-11-27T16:01:58;1.00;;;0.20;;
74660;SDS011;63191;39.566;2.654;2022-11-27T16:04:24;2.00;;;0.20;;
74660;SDS011;63191;39.566;2.654;2022-11-27T16:06:49;2.60;;;0.20;;
74660;SDS011;63191;39.566;2.654;2022-11-27T16:09:15;3.40;;;0.20;;
74660;SDS011;63191;39.566;2.654;2022-11-27T16:11:41;1.90;;;0.10;;
74660;SDS011;63191;39.566;2.654;2022-11-27T16:14:07;0.80;;;0.10;;
74660;SDS011;63191;39.566;2.654;2022-11-27T16:16:33;0.60;;;0.10;;
74660;SDS011;63191;39.566;2.654;2022-11-27T16:19:00;0.80;;;0.00;;
74660;SDS011;63191;39.566;2.654;2022-11-27T16:21:28;1.00;;;0.30;;
74660;SDS011;63191;39.566;2.654;2022-11-27T16:23:59;3.10;;;0.20;;
74660;SDS011;63191;39.566;2.654;2022-11-27T16:26:27;0.50;;;0.10;;
74660;SDS011;63191;39.566;2.654;2022-11-27T16:28:53;2.70;;;0.20;;
74660;SDS011;63191;39.566;2.654;2022-11-27T16:31:20;2.80;;;0.20;;
74660;SDS011;63191;39.566;2.654;2022-11-27T16:33:46;1.00;;;0.10;;
74660;SDS011;63191;39.566;2.654;2022-11-27T16:36:14;1.30;;;0.10;;
74660;SDS011;63191;39.566;2.654;2022-11-27T16:38:42;1.30;;;0.10;;
74660;SDS011;63191;39.566;2.654;2022-11-27T16:41:10;0.90;;;0.10;;
74660;SDS011;63191;39.566;2.654;2022-11-27T16:43:43;0.50;;;0.10;;
74660;SDS011;63191;39.566;2.654;2022-11-27T16:46:18;1.00;;;0.00;;
74660;SDS011;63191;39.566;2.654;2022-11-27T16:48:46;2.30;;;0.20;;
74660;SDS011;63191;39.566;2.654;2022-11-27T16:51:22;2.20;;;0.10;;
74660;SDS011;63191;39.566;2.654;2022-11-27T16:53:52;0.80;;;0.10;;
74660;SDS011;63191;39.566;2.654;2022-11-27T16:56:20;1.30;;;0.10;;
74660;SDS011;63191;39.566;2.654;2022-11-27T16:58:49;1.50;;;0.10;;
74660;SDS011;63191;39.566;2.654;2022-11-27T17:01:29;2.30;;;0.20;;
74660;SDS011;63191;39.566;2.654;2022-11-27T17:03:58;0.60;;;0.10;;
74660;SDS011;63191;39.566;2.654;2022-11-27T17:06:26;0.70;;;0.20;;
74660;SDS011;63191;39.566;2.654;2022-11-27T17:08:54;0.70;;;0.00;;
74660;SDS011;63191;39.566;2.654;2022-11-27T17:11:22;0.80;;;0.10;;
74660;SDS011;63191;39.566;2.654;2022-11-27T17:13:49;0.30;;;0.10;;